Current Weather

Tambacounda

Tambacounda, Senegal (GOTT)

Report from: Monday, May 23, 2022 9:00 AM GMT
Current time: Monday, May 23, 2022 9:17 AM GMT

Nearby weather
Weather history
Weather forecast

Temperature27.0°C (80.6°F)
Heat index27.6°C (81.6°F)
Dew point15.0°C (59.0°F)
Winds 8 kts (4.1 m/s, 9.2 mph) West (260°)
Clouds Sky clear
Altimeter29.88 in.Hg (1012 mB)
Relative humidity48 %
Density altitude1,662 ft. (507 m)
Remarks Ceiling and visibility OK
Flight conditions Visual Meteorological Conditions
Raw dataGOTT 230900Z 26008KT CAVOK 27/15 Q1012
An error has occurred. This application may no longer respond until reloaded. Reload 🗙